createdAt,value
2018-04-02T00:00:55.310Z,0.00
2018-04-02T00:01:55.270Z,0.00
2018-04-02T00:02:55.212Z,0.00
2018-04-02T00:03:55.163Z,0.00
2018-04-02T00:04:55.126Z,0.00
2018-04-02T00:05:55.378Z,0.00
2018-04-02T00:06:55.032Z,0.00
2018-04-02T00:07:54.987Z,0.00
2018-04-02T00:08:54.991Z,0.00
2018-04-02T00:09:54.898Z,0.00
2018-04-02T00:10:54.848Z,0.00
2018-04-02T00:11:55.106Z,0.00
2018-04-02T00:12:54.743Z,0.00
2018-04-02T00:13:54.699Z,0.00
2018-04-02T00:14:54.661Z,0.00
2018-04-02T00:15:54.601Z,0.00
2018-04-02T00:16:54.617Z,0.00
2018-04-02T00:17:54.810Z,0.00
2018-04-02T00:18:54.461Z,0.00
2018-04-02T00:19:54.415Z,0.00
2018-04-02T00:20:54.381Z,0.00
2018-04-02T00:21:54.340Z,0.00
2018-04-02T00:22:54.294Z,0.00
2018-04-02T00:23:54.544Z,0.00
2018-04-02T00:24:54.191Z,0.00
2018-04-02T00:25:54.146Z,0.00
2018-04-02T00:26:54.101Z,0.00
2018-04-02T00:27:54.054Z,0.00
2018-04-02T00:28:54.006Z,0.00
2018-04-02T00:29:54.259Z,0.00
2018-04-02T00:30:53.915Z,0.00
2018-04-02T00:31:53.917Z,0.00
2018-04-02T00:32:53.821Z,0.00
2018-04-02T00:33:53.776Z,0.00
2018-04-02T00:34:53.735Z,0.00
2018-04-02T00:35:53.980Z,0.00
2018-04-02T00:36:53.626Z,0.00
2018-04-02T00:37:53.585Z,0.00
2018-04-02T00:38:53.528Z,0.00
2018-04-02T00:39:53.485Z,0.00
2018-04-02T00:40:53.439Z,0.00
2018-04-02T00:41:53.403Z,0.00
2018-04-02T00:42:53.648Z,0.00
2018-04-02T00:43:53.296Z,0.00
2018-04-02T00:44:53.261Z,0.00
2018-04-02T00:45:53.218Z,0.00
2018-04-02T00:46:53.174Z,0.00
2018-04-02T00:47:53.126Z,0.00
2018-04-02T00:48:53.114Z,0.00
2018-04-02T00:49:53.332Z,0.00
2018-04-02T00:50:52.985Z,0.00
2018-04-02T00:51:52.932Z,0.00
2018-04-02T00:52:52.876Z,0.00
2018-04-02T00:53:52.830Z,0.00
2018-04-02T00:54:52.782Z,0.00
2018-04-02T00:55:52.738Z,0.00
2018-04-02T00:56:52.990Z,0.00
2018-04-02T00:57:52.642Z,0.00
2018-04-02T00:58:52.598Z,0.00
2018-04-02T00:59:52.550Z,0.00
2018-04-02T01:00:52.500Z,0.00
2018-04-02T01:01:52.465Z,0.00
2018-04-02T01:02:52.405Z,0.00
2018-04-02T01:03:52.652Z,0.00
2018-04-02T01:04:52.308Z,0.00
2018-04-02T01:05:52.261Z,0.00
2018-04-02T01:06:52.220Z,0.00
2018-04-02T01:07:52.165Z,0.00
2018-04-02T01:08:52.130Z,0.00
2018-04-02T01:09:52.085Z,0.00
2018-04-02T01:10:52.340Z,0.00
2018-04-02T01:11:51.990Z,0.00
2018-04-02T01:12:51.943Z,0.00
2018-04-02T01:13:51.900Z,0.00
2018-04-02T01:14:51.849Z,0.00
2018-04-02T01:15:51.803Z,0.00
2018-04-02T01:16:51.747Z,0.00
2018-04-02T01:17:51.999Z,0.00
2018-04-02T01:18:51.653Z,0.00
2018-04-02T01:19:51.605Z,0.00
2018-04-02T01:20:51.561Z,0.00
2018-04-02T01:21:51.514Z,0.00
2018-04-02T01:22:51.470Z,0.00
2018-04-02T01:23:51.718Z,0.00
2018-04-02T01:24:51.383Z,0.00
2018-04-02T01:25:51.339Z,0.00
2018-04-02T01:26:51.289Z,0.00
2018-04-02T01:27:51.246Z,0.00
2018-04-02T01:28:51.196Z,0.00
2018-04-02T01:29:51.450Z,0.00
2018-04-02T01:30:51.104Z,0.00
2018-04-02T01:31:51.056Z,0.00
2018-04-02T01:32:51.008Z,0.00
2018-04-02T01:33:50.960Z,0.00
2018-04-02T01:34:50.983Z,0.00
2018-04-02T01:35:51.172Z,0.00
2018-04-02T01:36:50.820Z,0.00
2018-04-02T01:37:50.777Z,0.00
2018-04-02T01:38:50.729Z,0.00
2018-04-02T01:39:50.682Z,0.00
2018-04-02T01:40:50.678Z,0.00
2018-04-02T01:41:50.878Z,0.00
2018-04-02T01:42:50.537Z,0.00
2018-04-02T01:43:50.488Z,0.00
2018-04-02T01:44:50.437Z,0.00
2018-04-02T01:45:50.400Z,0.00
2018-04-02T01:46:50.397Z,0.00
2018-04-02T01:47:50.596Z,0.00
2018-04-02T01:48:50.261Z,0.00
2018-04-02T01:49:50.214Z,0.00
2018-04-02T01:50:50.166Z,0.00
2018-04-02T01:51:50.122Z,0.00
2018-04-02T01:52:50.072Z,0.00
2018-04-02T01:53:50.027Z,0.00
2018-04-02T01:54:50.280Z,0.00
2018-04-02T01:55:49.936Z,0.00
2018-04-02T01:56:49.877Z,0.00
2018-04-02T01:57:49.836Z,0.00
2018-04-02T01:58:49.789Z,0.00
2018-04-02T01:59:49.736Z,0.00
2018-04-02T02:00:49.689Z,0.00
2018-04-02T02:01:49.943Z,0.00
2018-04-02T02:02:49.595Z,0.00
2018-04-02T02:03:49.555Z,0.00
2018-04-02T02:04:49.503Z,0.00
2018-04-02T02:05:49.456Z,0.00
2018-04-02T02:06:49.407Z,0.00
2018-04-02T02:07:49.365Z,0.00
2018-04-02T02:08:49.615Z,0.00
2018-04-02T02:09:49.269Z,0.00
2018-04-02T02:10:49.220Z,0.00
2018-04-02T02:11:49.179Z,0.00
2018-04-02T02:12:49.152Z,0.00
2018-04-02T02:13:49.093Z,0.00
2018-04-02T02:14:49.044Z,0.00
2018-04-02T02:15:49.299Z,0.00
2018-04-02T02:16:48.952Z,0.00
2018-04-02T02:17:48.907Z,0.00
2018-04-02T02:18:48.858Z,0.00
2018-04-02T02:19:48.812Z,0.00
2018-04-02T02:20:48.763Z,0.00
2018-04-02T02:21:48.708Z,0.00
2018-04-02T02:22:48.963Z,0.00
2018-04-02T02:23:48.616Z,0.00
2018-04-02T02:24:48.575Z,0.00
2018-04-02T02:25:48.522Z,0.00
2018-04-02T02:26:48.488Z,0.00
2018-04-02T02:27:48.436Z,0.00
2018-04-02T02:28:48.403Z,0.00
2018-04-02T02:29:48.644Z,0.00
2018-04-02T02:30:48.303Z,0.00
2018-04-02T02:31:48.253Z,0.00
2018-04-02T02:32:48.205Z,0.00
2018-04-02T02:33:48.158Z,0.00
2018-04-02T02:34:48.110Z,0.00
2018-04-02T02:35:48.380Z,0.00
2018-04-02T02:36:48.019Z,0.00
2018-04-02T02:37:47.971Z,0.00
2018-04-02T02:38:47.924Z,0.00
2018-04-02T02:39:47.877Z,0.00
2018-04-02T02:40:47.833Z,0.00
2018-04-02T02:41:48.083Z,0.00
2018-04-02T02:42:47.739Z,0.00
2018-04-02T02:43:47.690Z,0.00
2018-04-02T02:44:47.640Z,0.00
2018-04-02T02:45:47.589Z,0.00
2018-04-02T02:46:47.542Z,0.00
2018-04-02T02:47:47.793Z,0.00
2018-04-02T02:48:47.445Z,0.00
2018-04-02T02:49:47.401Z,0.00
2018-04-02T02:50:47.358Z,0.00
2018-04-02T02:51:47.305Z,0.00
2018-04-02T02:52:47.269Z,0.00
2018-04-02T02:53:47.537Z,0.00
2018-04-02T02:54:47.176Z,0.00
2018-04-02T02:55:47.130Z,0.00
2018-04-02T02:56:47.082Z,0.00
2018-04-02T02:57:47.046Z,0.00
2018-04-02T02:58:46.986Z,0.00
2018-04-02T02:59:47.245Z,0.00
2018-04-02T03:00:46.883Z,0.00
2018-04-02T03:01:46.843Z,0.00
2018-04-02T03:02:46.789Z,0.00
2018-04-02T03:03:46.743Z,0.00
2018-04-02T03:04:46.697Z,0.00
2018-04-02T03:05:46.652Z,0.00
2018-04-02T03:06:46.909Z,0.00
2018-04-02T03:07:46.559Z,0.00
2018-04-02T03:08:46.508Z,0.00
2018-04-02T03:09:46.461Z,0.00
2018-04-02T03:10:46.413Z,0.00
2018-04-02T03:11:46.367Z,0.00
2018-04-02T03:12:46.321Z,0.00
2018-04-02T03:13:46.574Z,0.00
2018-04-02T03:14:46.225Z,0.00
2018-04-02T03:15:46.180Z,0.00
2018-04-02T03:16:46.145Z,0.00
2018-04-02T03:17:46.102Z,0.00
2018-04-02T03:18:46.050Z,0.00
2018-04-02T03:19:46.007Z,0.00
2018-04-02T03:20:46.257Z,0.00
2018-04-02T03:21:45.909Z,0.00
2018-04-02T03:22:45.861Z,0.00
2018-04-02T03:23:45.818Z,0.00
2018-04-02T03:24:45.762Z,0.00
2018-04-02T03:25:45.714Z,0.00
2018-04-02T03:26:45.663Z,0.00
2018-04-02T03:27:45.922Z,0.00
2018-04-02T03:28:45.573Z,0.00
2018-04-02T03:29:45.523Z,0.00
2018-04-02T03:30:45.487Z,0.00
2018-04-02T03:31:45.437Z,0.00
2018-04-02T03:32:45.404Z,0.00
2018-04-02T03:33:45.346Z,0.00
2018-04-02T03:34:45.597Z,0.00
2018-04-02T03:35:45.256Z,0.00
2018-04-02T03:36:45.205Z,0.00
2018-04-02T03:37:45.158Z,0.00
2018-04-02T03:38:45.118Z,0.00
2018-04-02T03:39:45.063Z,0.00
2018-04-02T03:40:45.323Z,0.00
2018-04-02T03:41:44.970Z,0.00
2018-04-02T03:42:44.920Z,0.00
2018-04-02T03:43:44.874Z,0.00
2018-04-02T03:44:44.829Z,0.00
2018-04-02T03:45:44.791Z,0.00
2018-04-02T03:46:45.033Z,0.00
2018-04-02T03:47:44.686Z,0.00
2018-04-02T03:48:44.634Z,0.00
2018-04-02T03:49:44.580Z,0.00
2018-04-02T03:50:44.543Z,0.00
2018-04-02T03:51:44.488Z,0.00
2018-04-02T03:52:44.740Z,0.00
2018-04-02T03:53:44.394Z,0.00
2018-04-02T03:54:44.352Z,0.00
2018-04-02T03:55:44.300Z,0.00
2018-04-02T03:56:44.260Z,0.00
2018-04-02T03:57:44.218Z,0.00
2018-04-02T03:58:44.470Z,0.00
2018-04-02T03:59:44.119Z,0.00
2018-04-02T04:00:44.073Z,0.00
2018-04-02T04:01:44.026Z,0.00
2018-04-02T04:02:43.980Z,0.00
2018-04-02T04:03:43.936Z,0.00
2018-04-02T04:04:44.173Z,0.00
2018-04-02T04:05:43.826Z,0.00
2018-04-02T04:06:43.793Z,0.00
2018-04-02T04:07:43.734Z,0.00
2018-04-02T04:08:43.835Z,0.00
2018-04-02T04:09:43.639Z,0.00
2018-04-02T04:10:43.891Z,0.00
2018-04-02T04:11:43.545Z,0.00
2018-04-02T04:12:43.496Z,0.00
2018-04-02T04:13:43.450Z,0.00
2018-04-02T04:14:43.450Z,0.00
2018-04-02T04:15:43.356Z,0.00
2018-04-02T04:16:43.307Z,0.00
2018-04-02T04:17:43.564Z,0.00
2018-04-02T04:18:43.212Z,0.00
2018-04-02T04:19:43.164Z,0.00
2018-04-02T04:20:43.128Z,0.00
2018-04-02T04:21:43.083Z,0.00
2018-04-02T04:22:43.033Z,0.00
2018-04-02T04:23:42.987Z,0.00
2018-04-02T04:24:43.246Z,0.00
2018-04-02T04:25:42.891Z,0.00
2018-04-02T04:26:42.844Z,0.00
2018-04-02T04:27:42.797Z,4.00
2018-04-02T04:28:42.746Z,4.00
2018-04-02T04:29:42.693Z,0.00
2018-04-02T04:30:42.645Z,4.00
2018-04-02T04:31:42.898Z,4.00
2018-04-02T04:32:42.552Z,8.00
2018-04-02T04:33:42.507Z,8.00
2018-04-02T04:34:42.456Z,8.00
2018-04-02T04:35:42.410Z,8.00
2018-04-02T04:36:42.373Z,8.00
2018-04-02T04:37:42.325Z,12.00
2018-04-02T04:38:42.574Z,12.00
2018-04-02T04:39:42.236Z,16.00
2018-04-02T04:40:42.183Z,16.00
2018-04-02T04:41:42.139Z,16.00
2018-04-02T04:42:42.089Z,24.00
2018-04-02T04:43:42.039Z,24.00
2018-04-02T04:44:41.996Z,32.00
2018-04-02T04:45:42.245Z,40.00
2018-04-02T04:46:41.897Z,48.00
2018-04-02T04:47:41.852Z,60.00
2018-04-02T04:48:41.803Z,72.00
2018-04-02T04:49:41.759Z,80.00
2018-04-02T04:50:41.707Z,100.00
2018-04-02T04:51:41.960Z,116.00
2018-04-02T04:52:41.603Z,140.00
2018-04-02T04:53:41.555Z,164.00
2018-04-02T04:54:41.511Z,192.00
2018-04-02T04:55:41.467Z,220.00
2018-04-02T04:56:41.412Z,256.00
2018-04-02T04:57:41.669Z,288.00
2018-04-02T04:58:41.317Z,316.00
2018-04-02T04:59:41.274Z,336.00
2018-04-02T05:00:41.235Z,344.00
2018-04-02T05:01:41.199Z,352.00
2018-04-02T05:02:41.140Z,360.00
2018-04-02T05:03:41.393Z,376.00
2018-04-02T05:04:41.045Z,396.00
2018-04-02T05:05:41.002Z,428.00
2018-04-02T05:06:40.948Z,468.00
2018-04-02T05:07:40.902Z,476.00
2018-04-02T05:08:40.851Z,460.00
2018-04-02T05:09:41.102Z,448.00
2018-04-02T05:10:40.755Z,484.00
2018-04-02T05:11:40.702Z,556.00
2018-04-02T05:12:40.657Z,636.00
2018-04-02T05:13:40.612Z,720.00
2018-04-02T05:14:40.567Z,800.00
2018-04-02T05:15:40.814Z,868.00
2018-04-02T05:16:40.465Z,936.00
2018-04-02T05:17:40.471Z,1020.00
2018-04-02T05:18:40.371Z,1108.00
2018-04-02T05:19:40.322Z,1184.00
2018-04-02T05:20:40.278Z,1256.00
2018-04-02T05:21:40.531Z,1336.00
2018-04-02T05:22:40.183Z,1404.00
2018-04-02T05:23:40.136Z,1480.00
2018-04-02T05:24:40.101Z,1568.00
2018-04-02T05:25:40.052Z,1648.00
2018-04-02T05:26:40.010Z,1772.00
2018-04-02T05:27:39.953Z,1928.00
2018-04-02T05:28:40.212Z,2096.00
2018-04-02T05:29:39.862Z,2268.00
2018-04-02T05:30:39.813Z,2432.00
2018-04-02T05:31:39.767Z,2620.00
2018-04-02T05:32:39.710Z,2828.00
2018-04-02T05:33:39.662Z,3040.00
2018-04-02T05:34:39.612Z,3244.00
2018-04-02T05:35:39.870Z,3456.00
2018-04-02T05:36:39.521Z,3604.00
2018-04-02T05:37:39.474Z,3588.00
2018-04-02T05:38:39.429Z,3560.00
2018-04-02T05:39:39.423Z,3588.00
2018-04-02T05:40:39.338Z,3760.00
2018-04-02T05:41:39.293Z,3856.00
2018-04-02T05:42:39.547Z,3892.00
2018-04-02T05:43:39.203Z,3808.00
2018-04-02T05:44:39.148Z,3708.00
2018-04-02T05:45:39.206Z,3672.00
2018-04-02T05:46:39.106Z,3788.00
2018-04-02T05:47:39.009Z,4040.00
2018-04-02T05:48:38.963Z,4404.00
2018-04-02T05:49:39.219Z,4644.00
2018-04-02T05:50:38.867Z,4440.00
2018-04-02T05:51:38.918Z,4156.00
2018-04-02T05:52:38.772Z,4052.00
2018-04-02T05:53:38.729Z,4048.00
2018-04-02T05:54:38.678Z,4044.00
2018-04-02T05:55:38.646Z,3828.00
2018-04-02T05:56:38.874Z,3376.00
2018-04-02T05:57:38.582Z,3064.00
2018-04-02T05:58:39.690Z,2996.00
2018-04-02T05:59:38.437Z,3020.00
2018-04-02T06:00:38.388Z,3032.00
2018-04-02T06:01:38.340Z,3008.00
2018-04-02T06:02:38.595Z,2944.00
2018-04-02T06:03:38.246Z,3080.00
2018-04-02T06:04:38.210Z,3520.00
2018-04-02T06:05:38.164Z,4012.00
2018-04-02T06:06:38.116Z,4312.00
2018-04-02T06:07:38.070Z,4416.00
2018-04-02T06:08:38.323Z,4556.00
2018-04-02T06:09:37.983Z,4804.00
2018-04-02T06:10:37.978Z,4952.00
2018-04-02T06:11:37.885Z,5072.00
2018-04-02T06:12:37.830Z,5184.00
2018-04-02T06:13:37.781Z,5212.00
2018-04-02T06:14:38.035Z,5220.00
2018-04-02T06:15:37.687Z,5164.00
2018-04-02T06:16:37.678Z,5076.00
2018-04-02T06:17:37.596Z,5056.00
2018-04-02T06:18:37.549Z,5000.00
2018-04-02T06:19:37.501Z,4976.00
2018-04-02T06:20:37.756Z,5028.00
2018-04-02T06:21:37.410Z,5176.00
2018-04-02T06:22:37.363Z,5356.00
2018-04-02T06:23:37.321Z,5536.00
2018-04-02T06:24:37.270Z,5700.00
2018-04-02T06:25:37.224Z,5632.00
2018-04-02T06:26:37.483Z,5236.00
2018-04-02T06:27:37.137Z,4876.00
2018-04-02T06:28:37.108Z,4836.00
2018-04-02T06:29:37.051Z,4952.00
2018-04-02T06:30:37.006Z,5072.00
2018-04-02T06:31:36.996Z,5000.00
2018-04-02T06:32:36.913Z,4680.00
2018-04-02T06:33:37.165Z,4284.00
2018-04-02T06:34:36.869Z,3896.00
2018-04-02T06:35:36.772Z,3560.00
2018-04-02T06:36:36.722Z,3280.00
2018-04-02T06:37:36.679Z,3144.00
2018-04-02T06:38:36.643Z,3252.00
2018-04-02T06:39:36.581Z,3600.00
2018-04-02T06:40:36.836Z,4052.00
2018-04-02T06:41:36.486Z,4424.00
2018-04-02T06:42:36.442Z,4592.00
2018-04-02T06:43:36.394Z,4704.00
2018-04-02T06:44:36.358Z,5100.00
2018-04-02T06:45:36.312Z,5692.00
2018-04-02T06:46:36.266Z,6316.00
2018-04-02T06:47:36.523Z,6764.00
2018-04-02T06:48:36.174Z,7020.00
2018-04-02T06:49:36.132Z,7116.00
2018-04-02T06:50:36.082Z,7008.00
2018-04-02T06:51:36.085Z,6968.00
2018-04-02T06:52:35.988Z,7220.00
2018-04-02T06:53:35.996Z,7668.00
2018-04-02T06:54:36.197Z,8232.00
2018-04-02T06:55:35.854Z,8864.00
2018-04-02T06:56:35.854Z,9464.00
2018-04-02T06:57:35.762Z,10028.00
2018-04-02T06:58:35.728Z,10572.00
2018-04-02T06:59:35.670Z,11068.00
2018-04-02T07:00:35.614Z,11448.00
2018-04-02T07:01:35.868Z,11724.00
2018-04-02T07:02:35.670Z,11888.00
2018-04-02T07:03:35.475Z,11956.00
2018-04-02T07:04:35.449Z,12040.00
2018-04-02T07:05:35.385Z,12112.00
2018-04-02T07:06:35.345Z,12316.00
2018-04-02T07:07:35.306Z,13012.00
2018-04-02T07:08:35.557Z,13820.00
2018-04-02T07:09:35.216Z,14792.00
2018-04-02T07:10:35.266Z,16172.00
2018-04-02T07:11:35.120Z,18688.00
2018-04-02T07:12:35.074Z,21984.00
2018-04-02T07:13:35.029Z,24064.00
2018-04-02T07:14:35.284Z,24992.00
2018-04-02T07:15:34.944Z,26912.00
2018-04-02T07:16:34.883Z,25216.00
2018-04-02T07:17:34.838Z,28256.00
2018-04-02T07:18:34.796Z,35840.00
2018-04-02T07:19:34.754Z,33056.00
2018-04-02T07:20:35.005Z,36608.00
2018-04-02T07:21:34.664Z,41536.00
2018-04-02T07:22:34.622Z,42464.00
2018-04-02T07:23:34.571Z,40576.00
2018-04-02T07:24:34.532Z,43520.00
2018-04-02T07:25:34.484Z,44224.00
2018-04-02T07:26:34.743Z,31328.00
2018-04-02T07:27:34.400Z,26432.00
2018-04-02T07:28:34.359Z,25824.00
2018-04-02T07:29:34.314Z,32384.00
2018-04-02T07:30:34.273Z,34688.00
2018-04-02T07:31:34.233Z,34432.00
2018-04-02T07:32:34.496Z,37920.00
2018-04-02T07:33:34.155Z,47168.00
2018-04-02T07:34:34.113Z,44896.00
2018-04-02T07:35:34.120Z,51072.00
2018-04-02T07:36:34.034Z,51360.00
2018-04-02T07:37:34.037Z,52384.00
2018-04-02T07:38:34.250Z,53952.00
2018-04-02T07:39:33.901Z,60256.00
2018-04-02T07:40:33.902Z,59680.00
2018-04-02T07:41:33.815Z,50080.00
2018-04-02T07:42:33.824Z,43680.00
2018-04-02T07:43:33.741Z,49664.00
2018-04-02T07:44:33.750Z,46176.00
2018-04-02T07:45:33.951Z,41600.00
2018-04-02T07:46:33.609Z,34560.00
2018-04-02T07:47:33.567Z,29312.00
2018-04-02T07:48:33.536Z,25888.00
2018-04-02T07:49:33.544Z,24032.00
2018-04-02T07:50:33.526Z,22176.00
2018-04-02T07:51:33.415Z,20608.00
2018-04-02T07:52:33.676Z,20768.00
2018-04-02T07:53:33.333Z,21088.00
2018-04-02T07:54:33.342Z,21280.00
2018-04-02T07:55:33.250Z,21376.00
2018-04-02T07:56:33.214Z,21376.00
2018-04-02T07:57:33.268Z,22304.00
2018-04-02T07:58:33.127Z,23264.00
2018-04-02T07:59:33.389Z,23776.00
2018-04-02T08:00:33.145Z,24224.00
2018-04-02T08:01:33.004Z,24576.00
2018-04-02T08:02:32.965Z,24864.00
2018-04-02T08:03:32.920Z,24352.00
2018-04-02T08:04:33.029Z,23136.00
2018-04-02T08:05:32.877Z,21984.00
2018-04-02T08:06:33.082Z,20928.00
2018-04-02T08:07:32.741Z,20704.00
2018-04-02T08:08:32.713Z,21088.00
2018-04-02T08:09:32.809Z,21696.00
2018-04-02T08:10:32.668Z,22752.00
2018-04-02T08:11:32.572Z,24160.00
2018-04-02T08:12:32.542Z,25120.00
2018-04-02T08:13:32.799Z,25056.00
2018-04-02T08:14:32.456Z,24992.00
2018-04-02T08:15:32.414Z,25152.00
2018-04-02T08:16:32.372Z,25504.00
2018-04-02T08:17:32.338Z,26048.00
2018-04-02T08:18:32.291Z,26464.00
2018-04-02T08:19:32.249Z,26208.00
2018-04-02T08:20:32.551Z,26048.00
2018-04-02T08:21:32.151Z,25472.00
2018-04-02T08:22:32.157Z,24384.00
2018-04-02T08:23:32.072Z,23488.00
2018-04-02T08:24:32.024Z,23264.00
2018-04-02T08:25:32.081Z,23904.00
2018-04-02T08:26:32.240Z,24384.00
2018-04-02T08:27:31.902Z,23936.00
2018-04-02T08:28:31.852Z,22112.00
2018-04-02T08:29:31.911Z,20064.00
2018-04-02T08:30:31.828Z,19168.00
2018-04-02T08:31:31.726Z,19040.00
2018-04-02T08:32:32.146Z,19968.00
2018-04-02T08:33:31.651Z,21344.00
2018-04-02T08:34:31.649Z,23424.00
2018-04-02T08:35:31.607Z,25504.00
2018-04-02T08:36:31.528Z,27872.00
2018-04-02T08:37:31.532Z,32960.00
2018-04-02T08:38:31.745Z,34592.00
2018-04-02T08:39:31.502Z,28768.00
2018-04-02T08:40:31.402Z,23872.00
2018-04-02T08:41:31.315Z,22208.00
2018-04-02T08:42:31.268Z,22976.00
2018-04-02T08:43:31.275Z,24448.00
2018-04-02T08:44:31.475Z,24896.00
2018-04-02T08:45:31.131Z,25632.00
2018-04-02T08:46:31.092Z,26656.00
2018-04-02T08:47:31.100Z,28896.00
2018-04-02T08:48:31.055Z,32800.00
2018-04-02T08:49:31.075Z,39520.00
2018-04-02T08:50:31.317Z,42208.00
2018-04-02T08:51:30.879Z,47520.00
2018-04-02T08:52:30.847Z,51904.00
2018-04-02T08:53:30.806Z,50304.00
2018-04-02T08:54:30.761Z,45600.00
2018-04-02T08:55:30.873Z,42144.00
2018-04-02T08:56:30.726Z,42976.00
2018-04-02T08:57:31.041Z,43456.00
2018-04-02T08:58:30.593Z,49632.00
2018-04-02T08:59:30.552Z,49984.00
2018-04-02T09:00:30.562Z,48992.00
2018-04-02T09:01:30.472Z,47488.00
2018-04-02T09:02:30.481Z,50656.00
2018-04-02T09:03:30.440Z,51744.00
2018-04-02T09:04:30.653Z,46496.00
2018-04-02T09:05:30.360Z,46944.00
2018-04-02T09:06:30.266Z,54816.00
2018-04-02T09:07:30.374Z,52224.00
2018-04-02T09:08:30.240Z,47392.00
2018-04-02T09:09:30.136Z,51936.00
2018-04-02T09:10:30.103Z,55488.00
2018-04-02T09:11:30.356Z,52736.00
2018-04-02T09:12:30.064Z,51904.00
2018-04-02T09:13:30.028Z,51840.00
2018-04-02T09:14:30.036Z,44224.00
2018-04-02T09:15:29.946Z,43264.00
2018-04-02T09:16:29.875Z,44416.00
2018-04-02T09:17:29.936Z,47136.00
2018-04-02T09:18:30.136Z,48960.00
2018-04-02T09:19:29.789Z,50528.00
2018-04-02T09:20:29.758Z,53792.00
2018-04-02T09:21:29.669Z,47456.00
2018-04-02T09:22:29.680Z,40768.00
2018-04-02T09:23:29.642Z,37376.00
2018-04-02T09:24:29.538Z,35680.00
2018-04-02T09:25:29.799Z,34880.00
2018-04-02T09:26:29.467Z,34432.00
2018-04-02T09:27:29.471Z,33920.00
2018-04-02T09:28:29.429Z,33632.00
2018-04-02T09:29:29.339Z,33696.00
2018-04-02T09:30:29.350Z,34016.00
2018-04-02T09:31:29.263Z,33984.00
2018-04-02T09:32:29.624Z,33600.00
2018-04-02T09:33:29.284Z,33056.00
2018-04-02T09:34:29.141Z,32352.00
2018-04-02T09:35:29.105Z,31520.00
2018-04-02T09:36:29.063Z,30944.00
2018-04-02T09:37:29.118Z,30464.00
2018-04-02T09:38:29.382Z,30592.00
2018-04-02T09:39:28.936Z,32160.00
2018-04-02T09:40:29.056Z,33536.00
2018-04-02T09:41:28.868Z,33920.00
2018-04-02T09:42:28.875Z,33568.00
2018-04-02T09:43:28.837Z,33088.00
2018-04-02T09:44:29.050Z,33984.00
2018-04-02T09:45:28.753Z,35328.00
2018-04-02T09:46:28.664Z,34944.00
2018-04-02T09:47:28.727Z,34944.00
2018-04-02T09:48:28.624Z,34432.00
2018-04-02T09:49:28.530Z,34272.00
2018-04-02T09:50:28.796Z,35296.00
2018-04-02T09:51:28.448Z,38784.00
2018-04-02T09:52:28.412Z,44064.00
2018-04-02T09:53:28.425Z,46208.00
2018-04-02T09:54:28.331Z,48256.00
2018-04-02T09:55:28.341Z,51200.00
2018-04-02T09:56:28.562Z,56416.00
2018-04-02T09:57:28.241Z,56000.00
2018-04-02T09:58:28.223Z,53344.00
2018-04-02T09:59:28.172Z,50240.00
2018-04-02T10:00:28.147Z,48864.00
2018-04-02T10:01:28.104Z,50144.00
2018-04-02T10:02:28.315Z,51104.00
2018-04-02T10:03:28.025Z,45248.00
2018-04-02T10:04:27.937Z,44256.00
2018-04-02T10:05:27.942Z,43104.00
2018-04-02T10:06:27.951Z,42016.00
2018-04-02T10:07:27.962Z,44224.00
2018-04-02T10:08:28.072Z,42048.00
2018-04-02T10:09:27.731Z,42112.00
2018-04-02T10:10:27.828Z,42016.00
2018-04-02T10:11:27.708Z,42048.00
2018-04-02T10:12:27.603Z,41920.00
2018-04-02T10:13:27.613Z,41504.00
2018-04-02T10:14:27.523Z,42080.00
2018-04-02T10:15:27.869Z,45152.00
2018-04-02T10:16:27.494Z,47968.00
2018-04-02T10:17:27.507Z,47680.00
2018-04-02T10:18:27.416Z,50592.00
2018-04-02T10:19:27.326Z,53632.00
2018-04-02T10:20:27.351Z,54304.00
2018-04-02T10:21:27.306Z,58560.00
2018-04-02T10:22:27.514Z,59232.00
2018-04-02T10:23:27.276Z,60288.00
2018-04-02T10:24:27.139Z,60736.00
2018-04-02T10:25:27.098Z,61440.00
2018-04-02T10:26:27.109Z,54272.00
2018-04-02T10:27:27.071Z,57664.00
2018-04-02T10:28:27.019Z,57024.00
2018-04-02T10:29:27.231Z,47712.00
2018-04-02T10:30:26.949Z,54752.00
2018-04-02T10:31:26.962Z,61600.00
2018-04-02T10:32:26.814Z,63456.00
2018-04-02T10:33:26.827Z,58272.00
2018-04-02T10:34:26.747Z,49344.00
2018-04-02T10:35:26.956Z,46368.00
2018-04-02T10:36:27.061Z,47840.00
2018-04-02T10:37:26.628Z,50528.00
2018-04-02T10:38:26.736Z,45536.00
2018-04-02T10:39:26.646Z,40096.00
2018-04-02T10:40:26.561Z,35392.00
2018-04-02T10:41:26.532Z,32704.00
2018-04-02T10:42:26.504Z,31744.00
2018-04-02T10:43:26.694Z,31904.00
2018-04-02T10:44:26.523Z,33216.00
2018-04-02T10:45:26.322Z,35616.00
2018-04-02T10:46:26.432Z,36768.00
2018-04-02T10:47:26.243Z,36736.00
2018-04-02T10:48:26.304Z,36448.00
2018-04-02T10:49:26.218Z,36480.00
2018-04-02T10:50:26.426Z,37024.00
2018-04-02T10:51:26.087Z,38112.00
2018-04-02T10:52:26.040Z,40160.00
2018-04-02T10:53:26.049Z,42432.00
2018-04-02T10:54:26.066Z,42656.00
2018-04-02T10:55:25.920Z,42464.00
2018-04-02T10:56:26.229Z,41792.00
2018-04-02T10:57:25.840Z,42112.00
2018-04-02T10:58:25.899Z,44704.00
2018-04-02T10:59:25.843Z,49472.00
2018-04-02T11:00:25.782Z,55392.00
2018-04-02T11:01:25.738Z,57440.00
2018-04-02T11:02:25.948Z,58048.00
2018-04-02T11:03:25.771Z,59264.00
2018-04-02T11:04:25.680Z,64480.00
2018-04-02T11:05:25.533Z,52096.00
2018-04-02T11:06:25.542Z,47520.00
2018-04-02T11:07:25.459Z,44160.00
2018-04-02T11:08:25.823Z,43232.00
2018-04-02T11:09:25.473Z,40832.00
2018-04-02T11:10:25.340Z,38752.00
2018-04-02T11:11:25.349Z,38496.00
2018-04-02T11:12:25.482Z,38944.00
2018-04-02T11:13:25.266Z,38976.00
2018-04-02T11:14:25.591Z,38368.00
2018-04-02T11:15:25.140Z,37600.00
2018-04-02T11:16:25.140Z,38112.00
2018-04-02T11:17:25.056Z,41120.00
2018-04-02T11:18:25.059Z,44256.00
2018-04-02T11:19:25.122Z,46496.00
2018-04-02T11:20:25.234Z,46880.00
2018-04-02T11:21:25.056Z,46240.00
2018-04-02T11:22:24.858Z,45856.00
2018-04-02T11:23:24.864Z,44960.00
2018-04-02T11:24:24.892Z,42720.00
2018-04-02T11:25:24.745Z,40448.00
2018-04-02T11:26:24.755Z,39808.00
2018-04-02T11:27:24.966Z,42752.00
2018-04-02T11:29:24.638Z,56352.00
2018-04-02T11:30:24.546Z,61280.00
2018-04-02T11:31:24.562Z,67712.00
2018-04-02T11:32:24.468Z,69440.00
2018-04-02T11:33:24.472Z,65152.00
2018-04-02T11:34:24.681Z,56608.00
2018-04-02T11:35:24.342Z,54720.00
2018-04-02T11:36:24.355Z,54336.00
2018-04-02T11:37:24.265Z,54240.00
2018-04-02T11:38:24.381Z,57248.00
2018-04-02T11:39:24.236Z,59520.00
2018-04-02T11:40:24.150Z,56832.00
2018-04-02T11:41:24.410Z,53856.00
2018-04-02T11:42:24.123Z,51968.00
2018-04-02T11:43:24.084Z,49536.00
2018-04-02T11:44:24.160Z,47040.00
2018-04-02T11:45:23.961Z,44064.00
2018-04-02T11:46:23.969Z,43168.00
2018-04-02T11:47:23.931Z,41504.00
2018-04-02T11:48:24.151Z,40096.00
2018-04-02T11:50:23.776Z,38368.00
2018-04-02T11:51:23.787Z,36672.00
2018-04-02T11:52:23.802Z,35648.00
2018-04-02T11:53:23.661Z,35520.00
2018-04-02T11:54:23.676Z,35744.00
2018-04-02T11:55:23.885Z,35904.00
2018-04-02T11:56:23.597Z,35488.00
2018-04-02T11:57:23.656Z,35104.00
2018-04-02T11:58:23.456Z,35040.00
2018-04-02T11:59:23.471Z,34016.00
2018-04-02T12:00:23.385Z,33344.00
2018-04-02T12:01:23.394Z,32288.00
2018-04-02T12:02:23.706Z,30688.00
2018-04-02T12:03:23.261Z,28544.00
2018-04-02T12:04:23.272Z,25696.00
2018-04-02T12:05:23.181Z,23264.00
2018-04-02T12:06:23.152Z,20832.00
2018-04-02T12:08:23.132Z,20320.00
2018-04-02T12:09:23.427Z,21504.00
2018-04-02T12:10:22.996Z,22368.00
2018-04-02T12:11:23.003Z,22368.00
2018-04-02T12:12:22.961Z,21632.00
2018-04-02T12:13:22.875Z,20608.00
2018-04-02T12:14:22.988Z,19232.00
2018-04-02T12:15:23.093Z,18240.00
2018-04-02T12:16:22.801Z,17508.00
2018-04-02T12:17:22.763Z,17032.00
2018-04-02T12:18:22.671Z,16384.00
2018-04-02T12:19:22.728Z,15632.00
2018-04-02T12:20:22.637Z,14896.00
2018-04-02T12:21:22.848Z,14764.00
2018-04-02T12:22:22.557Z,14624.00
2018-04-02T12:23:22.457Z,14036.00
2018-04-02T12:24:22.465Z,13200.00
2018-04-02T12:25:22.426Z,12212.00